ADDS METAR Data INFO
IDs: Format: Raw Decoded Include TAF

Data at: 0159 UTC 19 Jul 2018

KF46 190155Z AUTO 17006KT 10SM CLR 35/19 A2985 RMK AO2 T03510186
KF46 190135Z AUTO 16007KT 10SM CLR 36/19 A2985 RMK AO2 T03560190
KF46 190115Z AUTO 16007KT 10SM CLR 36/19 A2985 RMK AO2 T03620188
KF46 190055Z AUTO 17008KT 10SM CLR 37/19 A2985 RMK AO2 T03670187
KF46 190035Z AUTO 17006KT 10SM CLR 37/19 A2985 RMK AO2 T03730190
KF46 190015Z AUTO 15007KT 10SM CLR 38/19 A2985 RMK AO2 T03790189
KF46 182355Z AUTO 18006KT 10SM CLR 38/18 A2985 RMK AO2 T03810181 10390 20344
KF46 182335Z AUTO 17006KT 10SM CLR 38/19 A2985 RMK AO2 T03810185
KF46 182315Z AUTO 16006KT 10SM CLR 38/19 A2985 RMK AO2 T03830194
KF46 182255Z AUTO 19006KT 10SM CLR 39/20 A2986 RMK AO2 T03850200
KF46 182235Z AUTO 00000KT 10SM CLR 38/20 A2986 RMK AO2 T03840200
KF46 182215Z AUTO 21004KT 10SM CLR 39/20 A2987 RMK AO2 T03860202
KF46 182155Z AUTO 00000KT 10SM SCT080 39/20 A2988 RMK AO2 T03860201
KF46 182135Z AUTO 22007KT 10SM SCT080 39/21 A2988 RMK AO2 T03860205
KF46 182115Z AUTO 28003KT 10SM CLR 38/20 A2989 RMK AO2 T03810203
KF46 182055Z AUTO 27003KT 10SM CLR 38/20 A2989 RMK AO2 T03830195
KF46 182035Z AUTO 00000KT 10SM CLR 38/20 A2990 RMK AO2 T03800199
KF46 182015Z AUTO 27004KT 10SM CLR 38/20 A2991 RMK AO2 T03820203
KF46 181955Z AUTO 26004KT 10SM CLR 38/20 A2992 RMK AO2 T03760201
KF46 181935Z AUTO 25005KT 10SM CLR 38/21 A2992 RMK AO2 T03760208
KF46 181915Z AUTO 27003KT 10SM CLR 37/20 A2993 RMK AO2 T03660203
KF46 181855Z AUTO 18006KT 10SM CLR 36/21 A2994 RMK AO2 T03610211
KF46 181835Z AUTO 00000KT 10SM CLR 36/22 A2994 RMK AO2 T03570216
KF46 181815Z AUTO 24004KT 10SM CLR 35/21 A2995 RMK AO2 T03450211
KF46 181755Z AUTO 25006KT 10SM CLR 34/21 A2996 RMK AO2 T03440211 10350 20262
KF46 181735Z AUTO 00000KT 10SM CLR 34/22 A2997 RMK AO2 T03440217
KF46 181715Z AUTO 24008KT 10SM CLR 34/22 A2997 RMK AO2 T03360215
KF46 181700Z AUTO 24004KT 10SM CLR 34/21 A2997 RMK AO2 T03360214
KF46 181635Z AUTO 22007KT 10SM CLR 33/22 A2998 RMK AO2 T03290216
KF46 181615Z AUTO 24005KT 10SM CLR 33/22 A2998 RMK AO2 T03280221
KF46 181555Z AUTO 21007KT 10SM CLR 32/22 A2998 RMK AO2 T03200220
KF46 181535Z AUTO 23007KT 10SM CLR 32/22 A2998 RMK AO2 T03150224
KF46 181515Z AUTO 24007KT 10SM CLR 31/22 A2999 RMK AO2 T03070222
KF46 181455Z AUTO 24006KT 10SM CLR 30/23 A2999 RMK AO2 T03020226
KF46 181435Z AUTO 23007KT 10SM CLR 29/22 A2998 RMK AO2 T02920224
KF46 181415Z AUTO 22011KT 7SM CLR 29/22 A2998 RMK AO2 T02900222
KF46 181355Z AUTO 22010KT 7SM CLR 29/22 A2998 RMK AO2 T02850221
KF46 181335Z AUTO 22010KT 10SM CLR 28/22 A2998 RMK AO2 LTG DSNT NE T02820220
KF46 181315Z AUTO 22008G14KT 7SM CLR 28/22 A2998 RMK AO2 T02800218
KF46 181255Z AUTO 22007KT 10SM CLR 28/22 A2998 RMK AO2 T02750217
KF46 181235Z AUTO 21008KT 10SM CLR 27/22 A2998 RMK AO2 T02680215
KF46 181215Z AUTO 20009KT 10SM CLR 26/21 A2998 RMK AO2 T02640213
KF46 181155Z AUTO 20008KT 10SM CLR 27/21 A2997 RMK AO2 T02650211 10301 20262
KF46 181135Z AUTO 20008KT 10SM CLR 26/21 A2997 RMK AO2 T02630210
KF46 181115Z AUTO 20007KT 10SM CLR 26/21 A2997 RMK AO2 T02620208
KF46 181055Z AUTO 19008KT 10SM CLR 26/21 A2996 RMK AO2 T02640206
KF46 181035Z AUTO 20009KT 10SM CLR 27/21 A2996 RMK AO2 T02670205
KF46 181015Z AUTO 20008KT 10SM CLR 27/21 A2996 RMK AO2 T02660205
KF46 180955Z AUTO 20008KT 10SM CLR 27/21 A2996 RMK AO2 T02660205
KF46 180935Z AUTO 20006KT 10SM CLR 27/20 A2996 RMK AO2 T02680203
KF46 180915Z AUTO 21007KT 10SM CLR 27/20 A2996 RMK AO2 T02720202
KF46 180855Z AUTO 20008KT 10SM CLR 28/20 A2996 RMK AO2 T02770201
KF46 180835Z AUTO 21007KT 10SM CLR 28/20 A2996 RMK AO2 T02790200
KF46 180815Z AUTO 21008KT 10SM CLR 28/20 A2995 RMK AO2 T02800198
KF46 180755Z AUTO 21007KT 10SM CLR 28/20 A2995 RMK AO2 T02800195
KF46 180735Z AUTO 21006KT 10SM CLR 28/19 A2995 RMK AO2 T02800191
KF46 180715Z AUTO 20008KT 10SM CLR 28/19 A2996 RMK AO2 T02840190
KF46 180655Z AUTO 20010KT 10SM CLR 29/19 A2996 RMK AO2 LTG DSNT NE T02850187
KF46 180635Z AUTO 19008KT 10SM CLR 29/19 A2997 RMK AO2 T02900186
KF46 180615Z AUTO 19010KT 10SM CLR 30/19 A2996 RMK AO2 T02950186
KF46 180555Z AUTO 20009G14KT 10SM CLR 30/18 A2996 RMK AO2 T03010183 10374 20299 403820250
KF46 180535Z AUTO 20008KT 10SM CLR 30/18 A2997 RMK AO2 T03010179
KF46 180515Z AUTO 19009KT 10SM CLR 30/17 A2996 RMK AO2 T03010173
KF46 180455Z AUTO 20008KT 10SM CLR 30/17 A2996 RMK AO2 T03010170
KF46 180435Z AUTO 18006KT 10SM CLR 30/17 A2997 RMK AO2 T03000168
KF46 180415Z AUTO 18005KT 10SM CLR 31/17 A2997 RMK AO2 T03050165
KF46 180355Z AUTO 18006KT 10SM CLR 31/16 A2997 RMK AO2 T03110164
KF46 180335Z AUTO 17006KT 10SM CLR 32/16 A2996 RMK AO2 T03180161
KF46 180315Z AUTO 17006KT 10SM CLR 32/16 A2995 RMK AO2 T03240156
KF46 180255Z AUTO 15005KT 10SM CLR 32/16 A2994 RMK AO2 T03240157
KF46 180235Z AUTO 15007KT 10SM CLR 33/16 A2993 RMK AO2 T03260160
KF46 180215Z AUTO 15005KT 10SM CLR 34/16 A2993 RMK AO2 T03350159
KF46 180155Z AUTO 15004KT 7SM CLR 34/16 A2993 RMK AO2 T03370160
KF46 180135Z AUTO 16005KT 7SM CLR 34/16 A2992 RMK AO2 T03430158
KF46 180115Z AUTO 17006KT 10SM CLR 35/16 A2992 RMK AO2 T03510157
KF46 180055Z AUTO 16004KT 7SM CLR 36/16 A2993 RMK AO2 T03590155
KF46 180035Z AUTO 18006KT 7SM CLR 37/16 A2992 RMK AO2 T03670155
KF46 180015Z AUTO 17007KT 7SM CLR 37/16 A2993 RMK AO2 T03710156
KF46 172355Z AUTO 16006KT 7SM CLR 37/16 A2993 RMK AO2 T03730160 10382 20344
KF46 172335Z AUTO 19009KT 7SM CLR 38/18 A2993 RMK AO2 T03760175
KF46 172315Z AUTO 19007KT 7SM CLR 38/18 A2993 RMK AO2 T03770183
KF46 172255Z AUTO 20007KT 7SM CLR 38/19 A2993 RMK AO2 T03780190
KF46 172235Z AUTO 22005KT 7SM CLR 38/19 A2994 RMK AO2 T03790185
KF46 172215Z AUTO 23005KT 7SM CLR 38/19 A2995 RMK AO2 T03810190
KF46 172155Z AUTO 00000KT 7SM CLR 38/19 A2995 RMK AO2 T03780185
KF46 172135Z AUTO 28003KT 7SM CLR 38/18 A2996 RMK AO2 T03790181
KF46 172115Z AUTO 29005KT 7SM CLR 38/19 A2996 RMK AO2 T03780187
KF46 172055Z AUTO 32004KT 7SM CLR 38/19 A2997 RMK AO2 T03750189
KF46 172035Z AUTO 22005KT 7SM CLR 37/19 A2998 RMK AO2 T03740194
KF46 172015Z AUTO 26004KT 10SM CLR 37/20 A2999 RMK AO2 T03720200
KF46 171955Z AUTO 30005KT 7SM CLR 37/20 A2999 RMK AO2 T03680199
KF46 171935Z AUTO 17003KT 10SM CLR 37/21 A3000 RMK AO2 T03680205
KF46 171915Z AUTO 27006KT 7SM CLR 37/21 A3001 RMK AO2 T03650205
KF46 171855Z AUTO 24007KT 7SM CLR 36/21 A3001 RMK AO2 T03570207
KF46 171835Z AUTO 23005KT 7SM CLR 35/21 A3002 RMK AO2 T03530208
KF46 171815Z AUTO 21004KT 7SM CLR 35/21 A3003 RMK AO2 LTG DSNT N T03510210
KF46 171755Z AUTO 25006KT 7SM CLR 34/21 A3004 RMK AO2 T03440209 10347 20252
KF46 171735Z AUTO 22007KT 7SM CLR 34/21 A3005 RMK AO2 T03390211
KF46 171715Z AUTO 27008KT 7SM CLR 34/22 A3005 RMK AO2 T03390216
KF46 171655Z AUTO 25008KT 7SM CLR 33/22 A3005 RMK AO2 T03310217
KF46 171635Z AUTO 24007KT 7SM CLR 32/22 A3005 RMK AO2 T03240223
KF46 171615Z AUTO 23006KT 7SM CLR 32/22 A3005 RMK AO2 T03180223
KF46 171555Z AUTO 23006KT 7SM CLR 31/22 A3005 RMK AO2 T03110224
KF46 171535Z AUTO 22008KT 10SM CLR 31/22 A3005 RMK AO2 T03050221
KF46 171515Z AUTO 23008KT 7SM CLR 30/22 A3005 RMK AO2 T02990220
KF46 171455Z AUTO 23009KT 7SM CLR 29/22 A3005 RMK AO2 T02930216
KF46 171435Z AUTO 22009KT 7SM CLR 29/21 A3005 RMK AO2 T02870213
KF46 171415Z AUTO 22007KT 7SM CLR 28/21 A3005 RMK AO2 T02820208